sensor_id;sensor_type;location;lat;lon;timestamp;temperature;humidity
23069;DHT22;11702;50.856;4.348;2023-03-23T00:01:25;13.40;99.90
23069;DHT22;11702;50.856;4.348;2023-03-23T00:03:53;13.50;99.90
23069;DHT22;11702;50.856;4.348;2023-03-23T00:06:27;13.30;99.90
23069;DHT22;11702;50.856;4.348;2023-03-23T00:08:54;13.50;99.90
23069;DHT22;11702;50.856;4.348;2023-03-23T00:11:28;13.40;99.90
23069;DHT22;11702;50.856;4.348;2023-03-23T00:13:56;13.40;99.90
23069;DHT22;11702;50.856;4.348;2023-03-23T00:16:24;13.40;99.90
23069;DHT22;11702;50.856;4.348;2023-03-23T00:19:06;13.30;99.90
23069;DHT22;11702;50.856;4.348;2023-03-23T00:21:34;13.30;99.90
23069;DHT22;11702;50.856;4.348;2023-03-23T00:26:39;13.30;99.90
23069;DHT22;11702;50.856;4.348;2023-03-23T00:31:44;13.30;99.90
23069;DHT22;11702;50.856;4.348;2023-03-23T00:34:14;13.30;99.90
23069;DHT22;11702;50.856;4.348;2023-03-23T00:36:45;13.40;99.90
23069;DHT22;11702;50.856;4.348;2023-03-23T00:39:11;13.30;99.90
23069;DHT22;11702;50.856;4.348;2023-03-23T00:41:38;13.20;99.90
23069;DHT22;11702;50.856;4.348;2023-03-23T00:44:05;13.30;99.90
23069;DHT22;11702;50.856;4.348;2023-03-23T00:46:33;13.30;99.90
23069;DHT22;11702;50.856;4.348;2023-03-23T00:48:59;13.30;99.90
23069;DHT22;11702;50.856;4.348;2023-03-23T00:51:27;13.30;99.90
23069;DHT22;11702;50.856;4.348;2023-03-23T00:53:53;13.40;99.90
23069;DHT22;11702;50.856;4.348;2023-03-23T00:56:18;13.30;99.90
23069;DHT22;11702;50.856;4.348;2023-03-23T00:58:44;13.30;99.90
23069;DHT22;11702;50.856;4.348;2023-03-23T01:01:09;13.40;99.90
23069;DHT22;11702;50.856;4.348;2023-03-23T01:03:35;13.40;99.90
23069;DHT22;11702;50.856;4.348;2023-03-23T01:06:07;13.40;99.90
23069;DHT22;11702;50.856;4.348;2023-03-23T01:08:33;13.30;99.90
23069;DHT22;11702;50.856;4.348;2023-03-23T01:11:06;13.40;99.90
23069;DHT22;11702;50.856;4.348;2023-03-23T01:13:32;13.40;99.90
23069;DHT22;11702;50.856;4.348;2023-03-23T01:15:58;13.30;99.90
23069;DHT22;11702;50.856;4.348;2023-03-23T01:18:23;13.40;99.90
23069;DHT22;11702;50.856;4.348;2023-03-23T01:20:49;13.40;99.90
23069;DHT22;11702;50.856;4.348;2023-03-23T01:23:14;13.40;99.90
23069;DHT22;11702;50.856;4.348;2023-03-23T01:25:40;13.50;99.90
23069;DHT22;11702;50.856;4.348;2023-03-23T01:28:05;13.50;99.90
23069;DHT22;11702;50.856;4.348;2023-03-23T01:30:31;13.50;99.90
23069;DHT22;11702;50.856;4.348;2023-03-23T01:32:57;13.50;99.90
23069;DHT22;11702;50.856;4.348;2023-03-23T01:35:22;13.50;99.90
23069;DHT22;11702;50.856;4.348;2023-03-23T01:37:48;13.50;99.90
23069;DHT22;11702;50.856;4.348;2023-03-23T01:40:15;13.40;99.90
23069;DHT22;11702;50.856;4.348;2023-03-23T01:42:41;13.30;99.90
23069;DHT22;11702;50.856;4.348;2023-03-23T01:47:45;13.30;99.90
23069;DHT22;11702;50.856;4.348;2023-03-23T01:50:12;13.20;99.90
23069;DHT22;11702;50.856;4.348;2023-03-23T01:52:38;13.20;99.90
23069;DHT22;11702;50.856;4.348;2023-03-23T01:55:05;13.20;99.90
23069;DHT22;11702;50.856;4.348;2023-03-23T01:57:31;13.30;99.90
23069;DHT22;11702;50.856;4.348;2023-03-23T02:00:03;13.30;99.90
23069;DHT22;11702;50.856;4.348;2023-03-23T02:02:36;13.40;99.90
23069;DHT22;11702;50.856;4.348;2023-03-23T02:05:11;13.30;99.90
23069;DHT22;11702;50.856;4.348;2023-03-23T02:07:37;13.30;99.90
23069;DHT22;11702;50.856;4.348;2023-03-23T02:10:03;13.20;99.90
23069;DHT22;11702;50.856;4.348;2023-03-23T02:12:29;13.20;99.90
23069;DHT22;11702;50.856;4.348;2023-03-23T02:15:01;13.20;99.90
23069;DHT22;11702;50.856;4.348;2023-03-23T02:23:12;13.40;99.90
23069;DHT22;11702;50.856;4.348;2023-03-23T02:25:55;13.40;99.90
23069;DHT22;11702;50.856;4.348;2023-03-23T02:36:47;13.20;99.90
23069;DHT22;11702;50.856;4.348;2023-03-23T02:39:24;13.20;99.90
23069;DHT22;11702;50.856;4.348;2023-03-23T02:42:02;13.20;99.90
23069;DHT22;11702;50.856;4.348;2023-03-23T02:44:30;13.20;99.90
23069;DHT22;11702;50.856;4.348;2023-03-23T02:46:57;13.20;99.90
23069;DHT22;11702;50.856;4.348;2023-03-23T02:49:25;13.20;99.90
23069;DHT22;11702;50.856;4.348;2023-03-23T02:51:53;13.10;99.90
23069;DHT22;11702;50.856;4.348;2023-03-23T02:54:20;13.20;99.90
23069;DHT22;11702;50.856;4.348;2023-03-23T02:56:51;13.20;99.90
23069;DHT22;11702;50.856;4.348;2023-03-23T02:59:17;13.10;99.90
23069;DHT22;11702;50.856;4.348;2023-03-23T03:04:14;13.00;99.90
23069;DHT22;11702;50.856;4.348;2023-03-23T03:07:14;13.00;99.90
23069;DHT22;11702;50.856;4.348;2023-03-23T03:10:06;13.00;99.90
23069;DHT22;11702;50.856;4.348;2023-03-23T03:12:44;13.00;99.90
23069;DHT22;11702;50.856;4.348;2023-03-23T03:15:44;13.00;99.90
23069;DHT22;11702;50.856;4.348;2023-03-23T03:21:08;13.10;99.90
23069;DHT22;11702;50.856;4.348;2023-03-23T03:23:39;13.20;99.90
23069;DHT22;11702;50.856;4.348;2023-03-23T03:26:07;13.20;99.90
23069;DHT22;11702;50.856;4.348;2023-03-23T03:28:36;13.10;99.90
23069;DHT22;11702;50.856;4.348;2023-03-23T03:31:03;13.10;99.90
23069;DHT22;11702;50.856;4.348;2023-03-23T03:33:30;13.20;99.90
23069;DHT22;11702;50.856;4.348;2023-03-23T03:36:03;13.30;99.90
23069;DHT22;11702;50.856;4.348;2023-03-23T03:38:29;13.20;99.90
23069;DHT22;11702;50.856;4.348;2023-03-23T03:40:56;13.20;99.90
23069;DHT22;11702;50.856;4.348;2023-03-23T03:43:21;13.20;99.90
23069;DHT22;11702;50.856;4.348;2023-03-23T03:45:47;13.10;99.90
23069;DHT22;11702;50.856;4.348;2023-03-23T03:48:13;13.10;99.90
23069;DHT22;11702;50.856;4.348;2023-03-23T03:50:39;13.10;99.90
23069;DHT22;11702;50.856;4.348;2023-03-23T03:53:05;13.10;99.90
23069;DHT22;11702;50.856;4.348;2023-03-23T03:55:32;13.10;99.90
23069;DHT22;11702;50.856;4.348;2023-03-23T03:58:04;13.10;99.90
23069;DHT22;11702;50.856;4.348;2023-03-23T04:00:30;13.00;99.90
23069;DHT22;11702;50.856;4.348;2023-03-23T04:02:56;13.10;99.90
23069;DHT22;11702;50.856;4.348;2023-03-23T04:05:22;13.10;99.90
23069;DHT22;11702;50.856;4.348;2023-03-23T04:07:48;13.00;99.90
23069;DHT22;11702;50.856;4.348;2023-03-23T04:10:18;13.10;99.90
23069;DHT22;11702;50.856;4.348;2023-03-23T04:12:48;13.10;99.90
23069;DHT22;11702;50.856;4.348;2023-03-23T04:15:14;13.00;99.90
23069;DHT22;11702;50.856;4.348;2023-03-23T04:17:39;13.10;99.90
23069;DHT22;11702;50.856;4.348;2023-03-23T04:20:06;13.10;99.90
23069;DHT22;11702;50.856;4.348;2023-03-23T04:22:38;13.10;99.90
23069;DHT22;11702;50.856;4.348;2023-03-23T04:25:04;13.00;99.90
23069;DHT22;11702;50.856;4.348;2023-03-23T04:27:32;13.00;99.90
23069;DHT22;11702;50.856;4.348;2023-03-23T04:29:58;12.90;99.90
23069;DHT22;11702;50.856;4.348;2023-03-23T04:32:25;12.90;99.90
23069;DHT22;11702;50.856;4.348;2023-03-23T04:34:55;13.00;99.90
23069;DHT22;11702;50.856;4.348;2023-03-23T04:37:22;13.00;99.90
23069;DHT22;11702;50.856;4.348;2023-03-23T04:39:51;13.20;99.90
23069;DHT22;11702;50.856;4.348;2023-03-23T04:42:28;13.10;99.90
23069;DHT22;11702;50.856;4.348;2023-03-23T04:44:55;13.00;99.90
23069;DHT22;11702;50.856;4.348;2023-03-23T04:47:21;12.80;99.90
23069;DHT22;11702;50.856;4.348;2023-03-23T04:49:47;12.80;99.90
23069;DHT22;11702;50.856;4.348;2023-03-23T04:52:12;12.90;99.90
23069;DHT22;11702;50.856;4.348;2023-03-23T04:54:39;12.90;99.90
23069;DHT22;11702;50.856;4.348;2023-03-23T04:57:05;12.90;99.90
23069;DHT22;11702;50.856;4.348;2023-03-23T04:59:30;12.80;99.90
23069;DHT22;11702;50.856;4.348;2023-03-23T05:01:56;12.70;99.90
23069;DHT22;11702;50.856;4.348;2023-03-23T05:04:22;12.60;99.90
23069;DHT22;11702;50.856;4.348;2023-03-23T05:06:53;12.60;99.90
23069;DHT22;11702;50.856;4.348;2023-03-23T05:09:19;12.60;99.90
23069;DHT22;11702;50.856;4.348;2023-03-23T05:11:45;12.60;99.90
23069;DHT22;11702;50.856;4.348;2023-03-23T05:14:11;12.60;99.90
23069;DHT22;11702;50.856;4.348;2023-03-23T05:16:37;12.70;99.90
23069;DHT22;11702;50.856;4.348;2023-03-23T05:19:03;12.80;99.90
23069;DHT22;11702;50.856;4.348;2023-03-23T05:21:30;12.80;99.90
23069;DHT22;11702;50.856;4.348;2023-03-23T05:23:57;12.70;99.90
23069;DHT22;11702;50.856;4.348;2023-03-23T05:26:26;12.80;99.90
23069;DHT22;11702;50.856;4.348;2023-03-23T05:28:55;12.80;99.90
23069;DHT22;11702;50.856;4.348;2023-03-23T05:31:21;12.90;99.90
23069;DHT22;11702;50.856;4.348;2023-03-23T05:33:48;12.80;99.90
23069;DHT22;11702;50.856;4.348;2023-03-23T05:36:13;13.00;99.90
23069;DHT22;11702;50.856;4.348;2023-03-23T05:38:40;12.90;99.90
23069;DHT22;11702;50.856;4.348;2023-03-23T05:41:11;12.90;99.90
23069;DHT22;11702;50.856;4.348;2023-03-23T05:43:37;12.90;99.90
23069;DHT22;11702;50.856;4.348;2023-03-23T05:46:03;12.90;99.90
23069;DHT22;11702;50.856;4.348;2023-03-23T05:48:29;12.90;99.90
23069;DHT22;11702;50.856;4.348;2023-03-23T05:50:54;12.90;99.90
23069;DHT22;11702;50.856;4.348;2023-03-23T05:53:21;12.90;99.90
23069;DHT22;11702;50.856;4.348;2023-03-23T05:55:47;13.00;99.90
23069;DHT22;11702;50.856;4.348;2023-03-23T05:58:12;13.00;99.90
23069;DHT22;11702;50.856;4.348;2023-03-23T06:00:38;13.00;99.90
23069;DHT22;11702;50.856;4.348;2023-03-23T06:03:04;13.00;99.90
23069;DHT22;11702;50.856;4.348;2023-03-23T06:05:31;13.00;99.90
23069;DHT22;11702;50.856;4.348;2023-03-23T06:07:58;13.00;99.90
23069;DHT22;11702;50.856;4.348;2023-03-23T06:10:25;13.00;99.90
23069;DHT22;11702;50.856;4.348;2023-03-23T06:12:51;13.00;99.90
23069;DHT22;11702;50.856;4.348;2023-03-23T06:15:17;13.00;99.90
23069;DHT22;11702;50.856;4.348;2023-03-23T06:17:43;13.00;99.90
23069;DHT22;11702;50.856;4.348;2023-03-23T06:20:09;12.90;99.90
23069;DHT22;11702;50.856;4.348;2023-03-23T06:22:38;13.00;99.90
23069;DHT22;11702;50.856;4.348;2023-03-23T06:25:06;13.10;99.90
23069;DHT22;11702;50.856;4.348;2023-03-23T06:27:32;13.00;99.90
23069;DHT22;11702;50.856;4.348;2023-03-23T06:29:58;13.10;99.90
23069;DHT22;11702;50.856;4.348;2023-03-23T06:32:25;13.20;99.90
23069;DHT22;11702;50.856;4.348;2023-03-23T06:34:53;13.10;99.90
23069;DHT22;11702;50.856;4.348;2023-03-23T06:37:18;13.10;99.90
23069;DHT22;11702;50.856;4.348;2023-03-23T06:39:44;13.10;99.90
23069;DHT22;11702;50.856;4.348;2023-03-23T06:42:10;13.10;99.90
23069;DHT22;11702;50.856;4.348;2023-03-23T06:44:37;13.10;99.90
23069;DHT22;11702;50.856;4.348;2023-03-23T06:47:03;13.20;99.90
23069;DHT22;11702;50.856;4.348;2023-03-23T06:49:29;13.20;99.90
23069;DHT22;11702;50.856;4.348;2023-03-23T06:51:54;13.30;99.90
23069;DHT22;11702;50.856;4.348;2023-03-23T06:54:21;13.10;99.90
23069;DHT22;11702;50.856;4.348;2023-03-23T06:56:47;13.00;99.90
23069;DHT22;11702;50.856;4.348;2023-03-23T06:59:12;12.90;99.90
23069;DHT22;11702;50.856;4.348;2023-03-23T07:01:39;12.80;99.90
23069;DHT22;11702;50.856;4.348;2023-03-23T07:04:05;12.50;99.90
23069;DHT22;11702;50.856;4.348;2023-03-23T07:06:31;12.20;99.90
23069;DHT22;11702;50.856;4.348;2023-03-23T07:08:57;11.60;99.90
23069;DHT22;11702;50.856;4.348;2023-03-23T07:11:23;11.30;99.90
23069;DHT22;11702;50.856;4.348;2023-03-23T07:13:49;11.10;99.90
23069;DHT22;11702;50.856;4.348;2023-03-23T07:16:16;10.80;99.90
23069;DHT22;11702;50.856;4.348;2023-03-23T07:18:42;10.60;99.90
23069;DHT22;11702;50.856;4.348;2023-03-23T07:21:07;10.50;99.90
23069;DHT22;11702;50.856;4.348;2023-03-23T07:23:33;10.30;99.90
23069;DHT22;11702;50.856;4.348;2023-03-23T07:26:01;10.20;99.90
23069;DHT22;11702;50.856;4.348;2023-03-23T07:28:26;10.20;99.90
23069;DHT22;11702;50.856;4.348;2023-03-23T07:30:52;10.20;99.90
23069;DHT22;11702;50.856;4.348;2023-03-23T07:33:18;10.20;99.90
23069;DHT22;11702;50.856;4.348;2023-03-23T07:35:43;10.30;99.90
23069;DHT22;11702;50.856;4.348;2023-03-23T07:38:09;10.40;99.90
23069;DHT22;11702;50.856;4.348;2023-03-23T07:40:35;10.60;99.90
23069;DHT22;11702;50.856;4.348;2023-03-23T07:43:02;10.70;99.90
23069;DHT22;11702;50.856;4.348;2023-03-23T07:45:29;10.90;99.90
23069;DHT22;11702;50.856;4.348;2023-03-23T07:47:55;11.00;99.90
23069;DHT22;11702;50.856;4.348;2023-03-23T07:50:21;11.00;99.90
23069;DHT22;11702;50.856;4.348;2023-03-23T07:52:49;11.20;99.90
23069;DHT22;11702;50.856;4.348;2023-03-23T07:55:16;11.20;99.90
23069;DHT22;11702;50.856;4.348;2023-03-23T07:57:46;11.30;99.90
23069;DHT22;11702;50.856;4.348;2023-03-23T08:00:14;11.40;99.90
23069;DHT22;11702;50.856;4.348;2023-03-23T08:02:46;11.50;99.90
23069;DHT22;11702;50.856;4.348;2023-03-23T08:05:12;11.50;99.90
23069;DHT22;11702;50.856;4.348;2023-03-23T08:07:39;11.50;99.90
23069;DHT22;11702;50.856;4.348;2023-03-23T08:10:06;11.60;99.90
23069;DHT22;11702;50.856;4.348;2023-03-23T08:12:35;11.70;99.90
23069;DHT22;11702;50.856;4.348;2023-03-23T08:15:03;11.70;99.90
23069;DHT22;11702;50.856;4.348;2023-03-23T08:17:28;11.70;99.90
23069;DHT22;11702;50.856;4.348;2023-03-23T08:19:54;11.80;99.90
23069;DHT22;11702;50.856;4.348;2023-03-23T08:22:21;11.70;99.90
23069;DHT22;11702;50.856;4.348;2023-03-23T08:24:47;11.50;99.90
23069;DHT22;11702;50.856;4.348;2023-03-23T08:27:12;11.30;99.90
23069;DHT22;11702;50.856;4.348;2023-03-23T08:29:38;11.10;99.90
23069;DHT22;11702;50.856;4.348;2023-03-23T08:32:04;11.10;99.90
23069;DHT22;11702;50.856;4.348;2023-03-23T08:34:30;11.20;99.90
23069;DHT22;11702;50.856;4.348;2023-03-23T08:36:56;11.20;99.90
23069;DHT22;11702;50.856;4.348;2023-03-23T08:39:23;11.30;99.90
23069;DHT22;11702;50.856;4.348;2023-03-23T08:41:50;11.30;99.90
23069;DHT22;11702;50.856;4.348;2023-03-23T08:44:16;11.30;99.90
23069;DHT22;11702;50.856;4.348;2023-03-23T08:46:41;11.30;99.90
23069;DHT22;11702;50.856;4.348;2023-03-23T08:49:07;11.30;99.90
23069;DHT22;11702;50.856;4.348;2023-03-23T08:51:33;11.20;99.90
23069;DHT22;11702;50.856;4.348;2023-03-23T08:53:59;11.30;99.90
23069;DHT22;11702;50.856;4.348;2023-03-23T08:56:25;11.40;99.90
23069;DHT22;11702;50.856;4.348;2023-03-23T08:58:51;11.50;99.90
23069;DHT22;11702;50.856;4.348;2023-03-23T09:01:17;11.70;99.90
23069;DHT22;11702;50.856;4.348;2023-03-23T09:03:42;11.80;99.90
23069;DHT22;11702;50.856;4.348;2023-03-23T09:06:09;11.90;99.90
23069;DHT22;11702;50.856;4.348;2023-03-23T09:08:37;12.00;99.90
23069;DHT22;11702;50.856;4.348;2023-03-23T09:11:05;12.10;99.90
23069;DHT22;11702;50.856;4.348;2023-03-23T09:13:35;12.20;99.90
23069;DHT22;11702;50.856;4.348;2023-03-23T09:16:02;12.20;99.90
23069;DHT22;11702;50.856;4.348;2023-03-23T09:18:29;12.20;99.90
23069;DHT22;11702;50.856;4.348;2023-03-23T09:20:56;12.20;99.90
23069;DHT22;11702;50.856;4.348;2023-03-23T09:23:22;12.20;99.90
23069;DHT22;11702;50.856;4.348;2023-03-23T09:25:48;12.30;99.90
23069;DHT22;11702;50.856;4.348;2023-03-23T09:28:14;12.30;99.90
23069;DHT22;11702;50.856;4.348;2023-03-23T09:30:40;12.30;99.90
23069;DHT22;11702;50.856;4.348;2023-03-23T09:33:07;12.10;99.90
23069;DHT22;11702;50.856;4.348;2023-03-23T09:35:34;12.10;99.90
23069;DHT22;11702;50.856;4.348;2023-03-23T09:38:01;12.00;99.90
23069;DHT22;11702;50.856;4.348;2023-03-23T09:45:55;11.90;99.90
23069;DHT22;11702;50.856;4.348;2023-03-23T09:48:27;11.90;99.90
23069;DHT22;11702;50.856;4.348;2023-03-23T09:51:03;12.10;99.90
23069;DHT22;11702;50.856;4.348;2023-03-23T09:53:41;12.20;99.90
23069;DHT22;11702;50.856;4.348;2023-03-23T09:56:14;12.30;99.90
23069;DHT22;11702;50.856;4.348;2023-03-23T09:59:08;12.40;99.90
23069;DHT22;11702;50.856;4.348;2023-03-23T10:02:14;12.50;99.90
23069;DHT22;11702;50.856;4.348;2023-03-23T10:04:51;12.80;99.90
23069;DHT22;11702;50.856;4.348;2023-03-23T10:07:22;13.20;99.90
23069;DHT22;11702;50.856;4.348;2023-03-23T10:09:54;13.50;99.90
23069;DHT22;11702;50.856;4.348;2023-03-23T10:15:32;14.10;99.90
23069;DHT22;11702;50.856;4.348;2023-03-23T10:18:02;14.30;99.90
23069;DHT22;11702;50.856;4.348;2023-03-23T10:26:06;14.80;99.90
23069;DHT22;11702;50.856;4.348;2023-03-23T10:28:42;15.00;99.90
23069;DHT22;11702;50.856;4.348;2023-03-23T10:31:18;15.00;99.90
23069;DHT22;11702;50.856;4.348;2023-03-23T10:33:49;15.10;99.90
23069;DHT22;11702;50.856;4.348;2023-03-23T10:36:25;15.30;99.90
23069;DHT22;11702;50.856;4.348;2023-03-23T10:39:00;15.10;99.90
23069;DHT22;11702;50.856;4.348;2023-03-23T10:41:27;15.00;99.90
23069;DHT22;11702;50.856;4.348;2023-03-23T10:43:52;15.10;99.90
23069;DHT22;11702;50.856;4.348;2023-03-23T10:49:10;15.00;99.90
23069;DHT22;11702;50.856;4.348;2023-03-23T10:51:41;15.20;99.90
23069;DHT22;11702;50.856;4.348;2023-03-23T10:54:07;15.40;99.90
23069;DHT22;11702;50.856;4.348;2023-03-23T10:56:42;15.50;99.90
23069;DHT22;11702;50.856;4.348;2023-03-23T10:59:39;15.80;99.90
23069;DHT22;11702;50.856;4.348;2023-03-23T11:02:15;15.80;99.90
23069;DHT22;11702;50.856;4.348;2023-03-23T11:04:45;15.60;99.90
23069;DHT22;11702;50.856;4.348;2023-03-23T11:07:19;15.70;99.90
23069;DHT22;11702;50.856;4.348;2023-03-23T11:09:54;15.90;99.90
23069;DHT22;11702;50.856;4.348;2023-03-23T11:12:22;15.80;99.90
23069;DHT22;11702;50.856;4.348;2023-03-23T11:14:48;15.80;99.90
23069;DHT22;11702;50.856;4.348;2023-03-23T11:17:27;15.60;99.90
23069;DHT22;11702;50.856;4.348;2023-03-23T11:19:53;15.50;99.90
23069;DHT22;11702;50.856;4.348;2023-03-23T11:22:29;15.30;99.90
23069;DHT22;11702;50.856;4.348;2023-03-23T11:25:00;15.20;99.90
23069;DHT22;11702;50.856;4.348;2023-03-23T11:27:27;15.20;99.90
23069;DHT22;11702;50.856;4.348;2023-03-23T11:30:01;15.20;99.90
23069;DHT22;11702;50.856;4.348;2023-03-23T11:32:34;15.20;99.90
23069;DHT22;11702;50.856;4.348;2023-03-23T11:35:03;15.10;99.90
23069;DHT22;11702;50.856;4.348;2023-03-23T11:37:37;15.00;99.90
23069;DHT22;11702;50.856;4.348;2023-03-23T11:43:06;15.10;99.90
23069;DHT22;11702;50.856;4.348;2023-03-23T11:46:33;15.00;99.90
23069;DHT22;11702;50.856;4.348;2023-03-23T11:48:45;15.30;99.90
23069;DHT22;11702;50.856;4.348;2023-03-23T11:51:20;15.70;99.90
23069;DHT22;11702;50.856;4.348;2023-03-23T11:54:16;16.00;99.90
23069;DHT22;11702;50.856;4.348;2023-03-23T11:56:44;16.30;99.90
23069;DHT22;11702;50.856;4.348;2023-03-23T11:59:18;16.70;99.90
23069;DHT22;11702;50.856;4.348;2023-03-23T12:04:46;17.00;99.90
23069;DHT22;11702;50.856;4.348;2023-03-23T12:10:26;17.00;99.90
23069;DHT22;11702;50.856;4.348;2023-03-23T12:13:15;17.00;99.90
23069;DHT22;11702;50.856;4.348;2023-03-23T12:16:17;17.10;99.90
23069;DHT22;11702;50.856;4.348;2023-03-23T12:21:24;17.00;99.90
23069;DHT22;11702;50.856;4.348;2023-03-23T12:24:06;17.10;99.90
23069;DHT22;11702;50.856;4.348;2023-03-23T12:32:38;16.60;99.90
23069;DHT22;11702;50.856;4.348;2023-03-23T12:41:01;17.00;99.90
23069;DHT22;11702;50.856;4.348;2023-03-23T12:44:05;17.20;99.90
23069;DHT22;11702;50.856;4.348;2023-03-23T12:46:48;17.10;99.90
23069;DHT22;11702;50.856;4.348;2023-03-23T12:49:37;17.10;99.90
23069;DHT22;11702;50.856;4.348;2023-03-23T12:52:39;17.30;99.90
23069;DHT22;11702;50.856;4.348;2023-03-23T12:58:19;17.50;99.90
23069;DHT22;11702;50.856;4.348;2023-03-23T13:01:20;17.30;99.90
23069;DHT22;11702;50.856;4.348;2023-03-23T13:06:32;17.30;99.90
23069;DHT22;11702;50.856;4.348;2023-03-23T13:11:44;17.30;99.90
23069;DHT22;11702;50.856;4.348;2023-03-23T13:17:16;17.20;99.90
23069;DHT22;11702;50.856;4.348;2023-03-23T13:22:59;17.30;99.90
23069;DHT22;11702;50.856;4.348;2023-03-23T13:28:18;17.70;99.90
23069;DHT22;11702;50.856;4.348;2023-03-23T13:31:14;17.50;99.90
23069;DHT22;11702;50.856;4.348;2023-03-23T13:33:46;17.40;99.90
23069;DHT22;11702;50.856;4.348;2023-03-23T13:36:16;17.50;99.90
23069;DHT22;11702;50.856;4.348;2023-03-23T13:38:48;17.60;99.90
23069;DHT22;11702;50.856;4.348;2023-03-23T13:41:16;17.40;99.90
23069;DHT22;11702;50.856;4.348;2023-03-23T13:43:45;17.40;99.90
23069;DHT22;11702;50.856;4.348;2023-03-23T13:49:18;17.70;99.90
23069;DHT22;11702;50.856;4.348;2023-03-23T13:54:48;17.60;99.90
23069;DHT22;11702;50.856;4.348;2023-03-23T13:57:34;17.50;99.90
23069;DHT22;11702;50.856;4.348;2023-03-23T14:03:17;17.10;99.90
23069;DHT22;11702;50.856;4.348;2023-03-23T14:08:44;16.60;99.90
23069;DHT22;11702;50.856;4.348;2023-03-23T14:14:00;16.20;99.90
23069;DHT22;11702;50.856;4.348;2023-03-23T14:16:43;16.00;99.90
23069;DHT22;11702;50.856;4.348;2023-03-23T14:19:27;15.90;99.90
23069;DHT22;11702;50.856;4.348;2023-03-23T14:22:00;16.00;99.90
23069;DHT22;11702;50.856;4.348;2023-03-23T14:24:39;16.20;99.90
23069;DHT22;11702;50.856;4.348;2023-03-23T14:29:30;16.30;99.90
23069;DHT22;11702;50.856;4.348;2023-03-23T14:31:57;16.30;99.90
23069;DHT22;11702;50.856;4.348;2023-03-23T14:34:27;16.40;99.90
23069;DHT22;11702;50.856;4.348;2023-03-23T14:36:54;16.50;99.90
23069;DHT22;11702;50.856;4.348;2023-03-23T14:41:53;16.70;99.90
23069;DHT22;11702;50.856;4.348;2023-03-23T14:44:30;16.70;99.90
23069;DHT22;11702;50.856;4.348;2023-03-23T14:46:58;16.50;99.90
23069;DHT22;11702;50.856;4.348;2023-03-23T14:49:35;16.20;99.90
23069;DHT22;11702;50.856;4.348;2023-03-23T14:52:12;15.90;99.90
23069;DHT22;11702;50.856;4.348;2023-03-23T14:54:39;15.70;99.90
23069;DHT22;11702;50.856;4.348;2023-03-23T14:57:26;15.60;99.90
23069;DHT22;11702;50.856;4.348;2023-03-23T14:59:52;15.70;99.90
23069;DHT22;11702;50.856;4.348;2023-03-23T15:02:25;15.80;99.90
23069;DHT22;11702;50.856;4.348;2023-03-23T15:05:11;15.90;99.90
23069;DHT22;11702;50.856;4.348;2023-03-23T15:07:40;16.10;99.90
23069;DHT22;11702;50.856;4.348;2023-03-23T15:10:17;16.30;99.90
23069;DHT22;11702;50.856;4.348;2023-03-23T15:12:45;16.30;99.90
23069;DHT22;11702;50.856;4.348;2023-03-23T15:15:32;16.40;99.90
23069;DHT22;11702;50.856;4.348;2023-03-23T15:17:59;16.40;99.90
23069;DHT22;11702;50.856;4.348;2023-03-23T15:20:32;16.40;99.90
23069;DHT22;11702;50.856;4.348;2023-03-23T15:23:16;16.60;99.90
23069;DHT22;11702;50.856;4.348;2023-03-23T15:25:53;16.90;99.90
23069;DHT22;11702;50.856;4.348;2023-03-23T15:28:22;16.90;99.90
23069;DHT22;11702;50.856;4.348;2023-03-23T15:30:55;17.00;99.90
23069;DHT22;11702;50.856;4.348;2023-03-23T15:33:25;17.00;99.90
23069;DHT22;11702;50.856;4.348;2023-03-23T15:35:56;17.20;99.90
23069;DHT22;11702;50.856;4.348;2023-03-23T15:38:29;17.30;99.90
23069;DHT22;11702;50.856;4.348;2023-03-23T15:41:05;17.40;99.90
23069;DHT22;11702;50.856;4.348;2023-03-23T15:43:48;17.40;99.90
23069;DHT22;11702;50.856;4.348;2023-03-23T15:51:29;16.90;99.90
23069;DHT22;11702;50.856;4.348;2023-03-23T15:53:56;16.50;99.90
23069;DHT22;11702;50.856;4.348;2023-03-23T15:56:23;16.20;99.90
23069;DHT22;11702;50.856;4.348;2023-03-23T15:58:48;16.00;99.90
23069;DHT22;11702;50.856;4.348;2023-03-23T16:01:34;15.90;99.90
23069;DHT22;11702;50.856;4.348;2023-03-23T16:04:08;16.10;99.90
23069;DHT22;11702;50.856;4.348;2023-03-23T16:06:35;16.10;99.90
23069;DHT22;11702;50.856;4.348;2023-03-23T16:09:03;16.20;99.90
23069;DHT22;11702;50.856;4.348;2023-03-23T16:11:30;16.30;99.90
23069;DHT22;11702;50.856;4.348;2023-03-23T16:13:56;16.30;99.90
23069;DHT22;11702;50.856;4.348;2023-03-23T16:16:25;16.40;99.90
23069;DHT22;11702;50.856;4.348;2023-03-23T16:18:52;16.30;99.90
23069;DHT22;11702;50.856;4.348;2023-03-23T16:21:17;16.40;99.90
23069;DHT22;11702;50.856;4.348;2023-03-23T16:23:43;16.60;99.90
23069;DHT22;11702;50.856;4.348;2023-03-23T16:26:11;16.60;99.90
23069;DHT22;11702;50.856;4.348;2023-03-23T16:28:37;16.70;99.90
23069;DHT22;11702;50.856;4.348;2023-03-23T16:31:03;16.70;99.90
23069;DHT22;11702;50.856;4.348;2023-03-23T16:33:29;16.60;99.90
23069;DHT22;11702;50.856;4.348;2023-03-23T16:35:55;16.80;99.90
23069;DHT22;11702;50.856;4.348;2023-03-23T16:38:22;16.70;99.90
23069;DHT22;11702;50.856;4.348;2023-03-23T16:40:48;16.60;99.90
23069;DHT22;11702;50.856;4.348;2023-03-23T16:43:14;16.60;99.90
23069;DHT22;11702;50.856;4.348;2023-03-23T16:45:42;16.40;99.90
23069;DHT22;11702;50.856;4.348;2023-03-23T16:48:10;16.30;99.90
23069;DHT22;11702;50.856;4.348;2023-03-23T16:50:36;16.20;99.90
23069;DHT22;11702;50.856;4.348;2023-03-23T16:53:03;16.20;99.90
23069;DHT22;11702;50.856;4.348;2023-03-23T16:55:29;16.10;99.90
23069;DHT22;11702;50.856;4.348;2023-03-23T16:57:56;15.90;99.90
23069;DHT22;11702;50.856;4.348;2023-03-23T17:00:22;16.00;99.90
23069;DHT22;11702;50.856;4.348;2023-03-23T17:02:50;16.00;99.90
23069;DHT22;11702;50.856;4.348;2023-03-23T17:05:18;15.90;99.90
23069;DHT22;11702;50.856;4.348;2023-03-23T17:07:44;15.80;99.90
23069;DHT22;11702;50.856;4.348;2023-03-23T17:10:11;15.80;99.90
23069;DHT22;11702;50.856;4.348;2023-03-23T17:12:37;15.80;99.90
23069;DHT22;11702;50.856;4.348;2023-03-23T17:15:04;15.80;99.90
23069;DHT22;11702;50.856;4.348;2023-03-23T17:17:30;15.80;99.90
23069;DHT22;11702;50.856;4.348;2023-03-23T17:19:56;15.80;99.90
23069;DHT22;11702;50.856;4.348;2023-03-23T17:22:22;15.70;99.90
23069;DHT22;11702;50.856;4.348;2023-03-23T17:24:48;15.70;99.90
23069;DHT22;11702;50.856;4.348;2023-03-23T17:27:16;15.60;99.90
23069;DHT22;11702;50.856;4.348;2023-03-23T17:29:42;15.60;99.90
23069;DHT22;11702;50.856;4.348;2023-03-23T17:32:08;15.60;99.90
23069;DHT22;11702;50.856;4.348;2023-03-23T17:34:34;15.50;99.90
23069;DHT22;11702;50.856;4.348;2023-03-23T17:37:00;15.50;99.90